Time;durP1;ratioP1;P1;durP2;ratioP2;P2;SDS_P1;SDS_P2;PMS_P1;PMS_P2;Temp;Humidity;BMP_temperature;BMP_pressure;BME280_temperature;BME280_humidity;BME280_pressure;Samples;Min_cycle;Max_cycle;Signal;HPM_P1;HPM_P2
2022/10/15 00:00:18;;;;;;;86.28;33.78;;;;;;;;;;5033854;28;20198;-69
2022/10/15 00:02:43;;;;;;;71.25;32.60;;;;;;;;;;5035378;28;20193;-69
2022/10/15 00:05:08;;;;;;;71.05;31.60;;;;;;;;;;5030891;28;20186;-69
2022/10/15 00:07:34;;;;;;;70.88;33.33;;;;;;;;;;5028635;28;20284;-69
2022/10/15 00:09:59;;;;;;;99.72;37.60;;;;;;;;;;5031664;28;20413;-69
2022/10/15 00:12:24;;;;;;;82.70;36.03;;;;;;;;;;5037373;28;20264;-69
2022/10/15 00:14:50;;;;;;;96.35;37.42;;;;;;;;;;5035976;28;20178;-69
2022/10/15 00:17:15;;;;;;;91.38;35.97;;;;;;;;;;5043257;28;20708;-69
2022/10/15 00:19:40;;;;;;;99.88;37.58;;;;;;;;;;5038685;28;20677;-69
2022/10/15 00:22:06;;;;;;;90.25;37.50;;;;;;;;;;5030392;28;20289;-69
2022/10/15 00:24:31;;;;;;;94.80;37.95;;;;;;;;;;5041680;28;20185;-69
2022/10/15 00:26:56;;;;;;;88.85;35.97;;;;;;;;;;5034750;28;20280;-69
2022/10/15 00:29:22;;;;;;;86.03;34.72;;;;;;;;;;5031364;28;20209;-69
2022/10/15 00:31:47;;;;;;;88.15;34.08;;;;;;;;;;5029247;28;20300;-69
2022/10/15 00:34:12;;;;;;;92.47;37.05;;;;;;;;;;5027853;28;20185;-69
2022/10/15 00:36:38;;;;;;;84.97;35.95;;;;;;;;;;5026460;28;20171;-69
2022/10/15 00:39:05;;;;;;;68.15;31.65;;;;;;;;;;5031575;28;20265;-69
2022/10/15 00:41:33;;;;;;;84.97;35.28;;;;;;;;;;5033144;28;20189;-69
2022/10/15 00:44:01;;;;;;;103.18;38.03;;;;;;;;;;5034229;28;20190;-69
2022/10/15 00:46:37;;;;;;;98.05;38.40;;;;;;;;;;5038914;28;20481;-69
2022/10/15 00:49:18;;;;;;;94.97;39.95;;;;;;;;;;5031215;28;20662;-69
2022/10/15 00:51:49;;;;;;;104.00;39.85;;;;;;;;;;5031792;28;20558;-69
2022/10/15 00:54:15;;;;;;;100.70;39.78;;;;;;;;;;5037691;28;20192;-69
2022/10/15 00:56:43;;;;;;;104.50;40.05;;;;;;;;;;5035591;28;20174;-69
2022/10/15 00:59:11;;;;;;;112.15;40.17;;;;;;;;;;5039463;28;20174;-69
2022/10/15 01:01:36;;;;;;;102.13;40.00;;;;;;;;;;5035813;28;20198;-69
2022/10/15 01:04:04;;;;;;;120.65;39.80;;;;;;;;;;5041839;28;20717;-69
2022/10/15 01:06:30;;;;;;;84.05;35.75;;;;;;;;;;5033017;28;20206;-69
2022/10/15 01:08:56;;;;;;;97.80;38.97;;;;;;;;;;5033947;28;20204;-69
2022/10/15 01:11:41;;;;;;;98.82;40.03;;;;;;;;;;5033212;28;20178;-69
2022/10/15 01:14:11;;;;;;;119.13;41.53;;;;;;;;;;5035174;28;20255;-69
2022/10/15 01:17:26;;;;;;;101.35;40.75;;;;;;;;;;5032477;28;20216;-69
2022/10/15 01:20:25;;;;;;;125.32;41.85;;;;;;;;;;5027728;28;20198;-69
2022/10/15 01:23:29;;;;;;;108.78;40.00;;;;;;;;;;5043859;28;20276;-69
2022/10/15 01:26:16;;;;;;;121.80;42.40;;;;;;;;;;5032963;28;20197;-69
2022/10/15 01:28:55;;;;;;;98.35;39.97;;;;;;;;;;5032747;28;20182;-69
2022/10/15 01:31:34;;;;;;;100.07;39.65;;;;;;;;;;5036654;28;20226;-69
2022/10/15 01:34:08;;;;;;;105.30;42.28;;;;;;;;;;5043621;28;20200;-69
2022/10/15 01:36:46;;;;;;;149.18;46.03;;;;;;;;;;5030621;28;20536;-69
2022/10/15 01:39:42;;;;;;;144.73;46.35;;;;;;;;;;5045906;28;20412;-69
2022/10/15 01:42:47;;;;;;;148.63;45.30;;;;;;;;;;5031968;28;20658;-69
2022/10/15 01:45:18;;;;;;;165.18;46.05;;;;;;;;;;5034738;28;20267;-69
2022/10/15 01:47:48;;;;;;;151.85;45.45;;;;;;;;;;5041491;28;20692;-69
2022/10/15 01:50:17;;;;;;;167.57;42.10;;;;;;;;;;5039476;28;20756;-69
2022/10/15 01:52:43;;;;;;;156.40;40.80;;;;;;;;;;5037085;28;20174;-69
2022/10/15 01:55:12;;;;;;;428.95;54.45;;;;;;;;;;5046356;28;20268;-69
2022/10/15 01:57:40;;;;;;;163.35;40.60;;;;;;;;;;5032168;28;20686;-69
2022/10/15 02:00:06;;;;;;;241.40;45.28;;;;;;;;;;5034835;28;20238;-69
2022/10/15 02:02:31;;;;;;;405.17;51.28;;;;;;;;;;5041219;28;20193;-69
2022/10/15 02:04:57;;;;;;;182.15;37.20;;;;;;;;;;5030172;28;20566;-69
2022/10/15 02:07:46;;;;;;;218.10;40.72;;;;;;;;;;5034720;28;20690;-69
2022/10/15 02:10:20;;;;;;;219.82;40.85;;;;;;;;;;5031013;28;20185;-69
2022/10/15 02:13:09;;;;;;;113.43;32.85;;;;;;;;;;5044310;28;20547;-69
2022/10/15 02:16:07;;;;;;;110.65;36.67;;;;;;;;;;5035541;28;20178;-69
2022/10/15 02:18:53;;;;;;;90.35;33.35;;;;;;;;;;5025833;28;20593;-69
2022/10/15 02:21:34;;;;;;;111.43;36.47;;;;;;;;;;5041044;28;20210;-69
2022/10/15 02:24:16;;;;;;;138.13;38.95;;;;;;;;;;5032184;28;20182;-69
2022/10/15 02:26:43;;;;;;;118.80;38.28;;;;;;;;;;5044331;28;20292;-69
2022/10/15 02:29:12;;;;;;;111.18;35.00;;;;;;;;;;5046203;28;20184;-69
2022/10/15 02:31:40;;;;;;;98.45;36.58;;;;;;;;;;5045252;28;20227;-69
2022/10/15 02:34:08;;;;;;;82.10;33.17;;;;;;;;;;5044749;28;20664;-69
2022/10/15 02:36:35;;;;;;;59.17;29.05;;;;;;;;;;5031180;28;20193;-69
2022/10/15 02:39:02;;;;;;;74.10;33.03;;;;;;;;;;5039659;28;20625;-69
2022/10/15 02:41:28;;;;;;;84.18;34.20;;;;;;;;;;5041448;28;20190;-69
2022/10/15 02:43:54;;;;;;;77.68;33.80;;;;;;;;;;5036958;28;20236;-69
2022/10/15 02:46:19;;;;;;;80.38;34.55;;;;;;;;;;5041558;28;20202;-69
2022/10/15 02:48:45;;;;;;;73.32;31.27;;;;;;;;;;5034706;28;20267;-69
2022/10/15 02:51:10;;;;;;;79.13;33.63;;;;;;;;;;5045495;28;20264;-69
2022/10/15 02:53:35;;;;;;;69.10;30.92;;;;;;;;;;5049281;28;20544;-69
2022/10/15 02:56:01;;;;;;;68.85;31.17;;;;;;;;;;5043923;28;20192;-69
2022/10/15 02:58:28;;;;;;;65.72;31.08;;;;;;;;;;5047734;28;20197;-69
2022/10/15 03:00:53;;;;;;;66.20;31.70;;;;;;;;;;5040677;28;20182;-69
2022/10/15 03:03:19;;;;;;;63.83;32.25;;;;;;;;;;5029065;28;20186;-69
2022/10/15 03:05:44;;;;;;;78.78;34.85;;;;;;;;;;5042271;28;20229;-69
2022/10/15 03:08:10;;;;;;;87.57;35.60;;;;;;;;;;5029683;28;20202;-69
2022/10/15 03:10:35;;;;;;;78.10;33.38;;;;;;;;;;5032790;28;20243;-69
2022/10/15 03:13:02;;;;;;;74.13;33.35;;;;;;;;;;5039975;28;20239;-69
2022/10/15 03:15:27;;;;;;;80.40;35.67;;;;;;;;;;5037983;28;20363;-69
2022/10/15 03:17:53;;;;;;;79.72;34.05;;;;;;;;;;5034820;28;20272;-69
2022/10/15 03:20:18;;;;;;;74.95;34.22;;;;;;;;;;5043961;28;20212;-69
2022/10/15 03:22:43;;;;;;;66.55;32.25;;;;;;;;;;5048264;28;20608;-69
2022/10/15 03:25:09;;;;;;;75.90;35.10;;;;;;;;;;5048592;28;20665;-69
2022/10/15 03:27:34;;;;;;;70.55;32.47;;;;;;;;;;5038890;28;20242;-69
2022/10/15 03:29:59;;;;;;;75.55;35.35;;;;;;;;;;5038802;28;20527;-69
2022/10/15 03:32:25;;;;;;;68.93;33.17;;;;;;;;;;5030734;28;20240;-69
2022/10/15 03:34:50;;;;;;;79.68;38.38;;;;;;;;;;5029165;28;20183;-69
2022/10/15 03:37:15;;;;;;;74.10;35.33;;;;;;;;;;5028765;28;20182;-69
2022/10/15 03:39:41;;;;;;;80.03;36.15;;;;;;;;;;5042654;28;20641;-69
2022/10/15 03:42:06;;;;;;;60.90;30.02;;;;;;;;;;5032850;28;20200;-69
2022/10/15 03:44:33;;;;;;;76.68;36.63;;;;;;;;;;5040103;28;20214;-69
2022/10/15 03:46:58;;;;;;;82.05;37.20;;;;;;;;;;5029350;28;20208;-69
2022/10/15 03:49:23;;;;;;;79.15;36.40;;;;;;;;;;5033482;28;20193;-69
2022/10/15 03:51:49;;;;;;;78.68;35.60;;;;;;;;;;5037103;28;20193;-69
2022/10/15 03:54:14;;;;;;;70.10;34.22;;;;;;;;;;5039552;28;20231;-69
2022/10/15 03:56:39;;;;;;;66.95;33.85;;;;;;;;;;5034290;28;20177;-69
2022/10/15 03:59:05;;;;;;;70.10;33.80;;;;;;;;;;5027665;28;20186;-69
2022/10/15 04:01:30;;;;;;;73.72;34.03;;;;;;;;;;5038811;28;20288;-69
2022/10/15 04:03:55;;;;;;;74.72;33.85;;;;;;;;;;5043331;28;20276;-69
2022/10/15 04:06:21;;;;;;;68.47;33.28;;;;;;;;;;5035990;28;20194;-69
2022/10/15 04:08:46;;;;;;;56.30;29.83;;;;;;;;;;5028946;28;20189;-69
2022/10/15 04:11:11;;;;;;;69.28;32.70;;;;;;;;;;5035991;28;20183;-69
2022/10/15 04:13:36;;;;;;;64.05;31.50;;;;;;;;;;5027431;28;20268;-69
2022/10/15 04:16:05;;;;;;;62.72;31.83;;;;;;;;;;5029415;28;20205;-69
2022/10/15 04:18:31;;;;;;;55.38;28.85;;;;;;;;;;5037325;28;20181;-69
2022/10/15 04:21:00;;;;;;;65.68;30.95;;;;;;;;;;5030777;28;20506;-69
2022/10/15 04:23:26;;;;;;;71.22;31.50;;;;;;;;;;5027810;28;20685;-69
2022/10/15 04:25:51;;;;;;;72.75;32.53;;;;;;;;;;5029035;28;20174;-69
2022/10/15 04:28:17;;;;;;;64.88;30.83;;;;;;;;;;5033178;28;20205;-69
2022/10/15 04:30:43;;;;;;;73.55;31.20;;;;;;;;;;5042647;28;20681;-69
2022/10/15 04:33:08;;;;;;;78.93;30.70;;;;;;;;;;5034362;28;20293;-69
2022/10/15 04:35:34;;;;;;;58.58;28.45;;;;;;;;;;5044712;28;20257;-69
2022/10/15 04:38:00;;;;;;;62.97;29.08;;;;;;;;;;5037908;28;20185;-69
2022/10/15 04:40:26;;;;;;;60.25;29.63;;;;;;;;;;5043226;28;20193;-69
2022/10/15 04:42:51;;;;;;;48.83;26.00;;;;;;;;;;5031072;28;20182;-69
2022/10/15 04:45:17;;;;;;;57.67;28.10;;;;;;;;;;5034547;28;20178;-69
2022/10/15 04:47:43;;;;;;;66.63;30.08;;;;;;;;;;5037132;28;20577;-69
2022/10/15 04:50:09;;;;;;;55.88;28.38;;;;;;;;;;5039078;28;20185;-69
2022/10/15 04:52:35;;;;;;;59.95;29.42;;;;;;;;;;5039349;28;20612;-69
2022/10/15 04:55:01;;;;;;;68.22;32.67;;;;;;;;;;5048662;28;20178;-69
2022/10/15 04:57:27;;;;;;;65.53;29.65;;;;;;;;;;5037648;28;20216;-69
2022/10/15 04:59:52;;;;;;;67.55;31.13;;;;;;;;;;5040638;28;20668;-69
2022/10/15 05:02:18;;;;;;;84.32;32.03;;;;;;;;;;5039449;28;20188;-69
2022/10/15 05:04:44;;;;;;;73.70;32.00;;;;;;;;;;5042702;28;20620;-69
2022/10/15 05:07:09;;;;;;;70.05;31.88;;;;;;;;;;5043505;28;20681;-69
2022/10/15 05:09:35;;;;;;;67.72;31.58;;;;;;;;;;5037861;28;20652;-69
2022/10/15 05:12:00;;;;;;;64.78;31.00;;;;;;;;;;5038849;28;20197;-69
2022/10/15 05:14:25;;;;;;;65.50;30.75;;;;;;;;;;5038334;28;20196;-69
2022/10/15 05:16:51;;;;;;;76.22;35.25;;;;;;;;;;5034695;28;20247;-69
2022/10/15 05:19:16;;;;;;;62.42;30.65;;;;;;;;;;5031835;28;20174;-69
2022/10/15 05:21:42;;;;;;;78.97;35.70;;;;;;;;;;5033622;28;20217;-69
2022/10/15 05:24:09;;;;;;;78.38;36.72;;;;;;;;;;5030971;28;20182;-69
2022/10/15 05:26:34;;;;;;;76.78;36.75;;;;;;;;;;5030303;28;20217;-69
2022/10/15 05:29:00;;;;;;;84.72;39.95;;;;;;;;;;5031113;28;20256;-69
2022/10/15 05:31:28;;;;;;;91.75;40.28;;;;;;;;;;5030230;28;20229;-69
2022/10/15 05:33:54;;;;;;;85.05;39.83;;;;;;;;;;5030632;28;20190;-69
2022/10/15 05:36:22;;;;;;;84.82;40.00;;;;;;;;;;5035582;28;20563;-69
2022/10/15 05:38:50;;;;;;;72.78;35.00;;;;;;;;;;5029573;28;20188;-69
2022/10/15 05:41:15;;;;;;;79.68;38.85;;;;;;;;;;5029060;28;20259;-69
2022/10/15 05:43:41;;;;;;;80.07;37.08;;;;;;;;;;5034916;28;20579;-69
2022/10/15 05:46:07;;;;;;;88.07;37.63;;;;;;;;;;5033809;28;20190;-69
2022/10/15 05:48:32;;;;;;;84.50;39.10;;;;;;;;;;5048402;28;20228;-70
2022/10/15 05:51:09;;;;;;;83.50;38.40;;;;;;;;;;5038485;28;20653;-69
2022/10/15 05:53:34;;;;;;;81.53;38.95;;;;;;;;;;5044095;28;20192;-69
2022/10/15 05:56:00;;;;;;;77.72;36.67;;;;;;;;;;5036891;28;20177;-69
2022/10/15 05:58:27;;;;;;;79.72;39.50;;;;;;;;;;5040472;28;20204;-69
2022/10/15 06:00:54;;;;;;;84.82;40.63;;;;;;;;;;5027851;28;20190;-69
2022/10/15 06:03:19;;;;;;;83.75;39.00;;;;;;;;;;5038353;28;20600;-69
2022/10/15 06:05:44;;;;;;;80.22;39.20;;;;;;;;;;5041522;28;20407;-69
2022/10/15 06:08:10;;;;;;;86.68;38.92;;;;;;;;;;5029904;28;20194;-69
2022/10/15 06:10:36;;;;;;;86.75;39.85;;;;;;;;;;5032304;28;20653;-69
2022/10/15 06:13:02;;;;;;;84.32;39.85;;;;;;;;;;5032559;28;20186;-69
2022/10/15 06:15:27;;;;;;;86.38;40.08;;;;;;;;;;5031315;28;20205;-69
2022/10/15 06:17:53;;;;;;;83.07;38.72;;;;;;;;;;5033871;28;20178;-69
2022/10/15 06:20:18;;;;;;;76.38;38.17;;;;;;;;;;5043936;28;20657;-69
2022/10/15 06:22:44;;;;;;;83.72;40.35;;;;;;;;;;5033101;28;20193;-69
2022/10/15 06:25:09;;;;;;;80.32;39.38;;;;;;;;;;5031980;28;20181;-69
2022/10/15 06:27:34;;;;;;;75.03;36.17;;;;;;;;;;5035828;28;20248;-69
2022/10/15 06:30:00;;;;;;;71.80;36.80;;;;;;;;;;5032353;28;20174;-69
2022/10/15 06:32:25;;;;;;;59.90;32.72;;;;;;;;;;5046876;28;20679;-69
2022/10/15 06:34:51;;;;;;;79.07;38.03;;;;;;;;;;5049481;28;20242;-69
2022/10/15 06:37:16;;;;;;;78.78;39.92;;;;;;;;;;5049016;28;20173;-70
2022/10/15 06:39:41;;;;;;;73.20;37.55;;;;;;;;;;5047595;28;20243;-69
2022/10/15 06:42:07;;;;;;;78.05;39.28;;;;;;;;;;5033012;28;20200;-69
2022/10/15 06:44:32;;;;;;;70.20;38.03;;;;;;;;;;5044792;28;20280;-69
2022/10/15 06:46:57;;;;;;;81.55;39.03;;;;;;;;;;5034143;28;20237;-69
2022/10/15 06:49:23;;;;;;;63.92;35.05;;;;;;;;;;5042450;28;20220;-69
2022/10/15 06:51:48;;;;;;;79.88;40.03;;;;;;;;;;5041043;28;20185;-69
2022/10/15 06:54:14;;;;;;;71.32;37.33;;;;;;;;;;5029248;28;20235;-69
2022/10/15 06:56:39;;;;;;;79.57;38.38;;;;;;;;;;5033924;28;20205;-69
2022/10/15 06:59:04;;;;;;;66.78;37.40;;;;;;;;;;5031797;28;20660;-69
2022/10/15 07:01:30;;;;;;;68.90;36.55;;;;;;;;;;5034675;28;20190;-69
2022/10/15 07:03:55;;;;;;;64.80;35.35;;;;;;;;;;5047405;28;20583;-69
2022/10/15 07:06:20;;;;;;;72.20;38.47;;;;;;;;;;5031665;28;20186;-69
2022/10/15 07:08:45;;;;;;;83.72;40.47;;;;;;;;;;5031275;28;20189;-69
2022/10/15 07:11:11;;;;;;;82.63;41.53;;;;;;;;;;5033137;28;20386;-69
2022/10/15 07:13:37;;;;;;;82.03;41.28;;;;;;;;;;5029251;28;20186;-69
2022/10/15 07:16:04;;;;;;;75.85;40.92;;;;;;;;;;5030725;28;20251;-69
2022/10/15 07:18:30;;;;;;;83.25;41.47;;;;;;;;;;5036556;28;20188;-69
2022/10/15 07:20:56;;;;;;;94.05;42.10;;;;;;;;;;5033825;28;20642;-69
2022/10/15 07:23:21;;;;;;;95.68;44.90;;;;;;;;;;5034015;28;20189;-69
2022/10/15 07:25:46;;;;;;;89.13;42.47;;;;;;;;;;5029294;28;20197;-69
2022/10/15 07:28:12;;;;;;;93.47;43.20;;;;;;;;;;5029983;28;20214;-69
2022/10/15 07:30:37;;;;;;;95.93;43.55;;;;;;;;;;5040695;28;20182;-69
2022/10/15 07:33:02;;;;;;;93.82;43.20;;;;;;;;;;5029048;28;20201;-69
2022/10/15 07:35:28;;;;;;;90.40;43.13;;;;;;;;;;5038622;28;20185;-69
2022/10/15 07:37:54;;;;;;;101.93;45.03;;;;;;;;;;5034299;28;20182;-69
2022/10/15 07:40:19;;;;;;;86.45;43.67;;;;;;;;;;5035309;28;20220;-68
2022/10/15 07:42:52;;;;;;;109.65;46.65;;;;;;;;;;5030455;28;20194;-69
2022/10/15 07:45:17;;;;;;;115.45;47.05;;;;;;;;;;5035617;28;20178;-69
2022/10/15 07:47:42;;;;;;;97.35;45.50;;;;;;;;;;5032012;28;20283;-69
2022/10/15 07:50:08;;;;;;;110.32;48.60;;;;;;;;;;5044250;28;20193;-69
2022/10/15 07:52:33;;;;;;;90.00;44.75;;;;;;;;;;5037132;28;20553;-69
2022/10/15 07:54:58;;;;;;;94.18;45.78;;;;;;;;;;5045417;28;20272;-68
2022/10/15 07:57:24;;;;;;;104.13;46.40;;;;;;;;;;5035435;28;20266;-69
2022/10/15 07:59:49;;;;;;;96.88;44.38;;;;;;;;;;5036461;28;20201;-69
2022/10/15 08:02:16;;;;;;;103.30;45.53;;;;;;;;;;5030192;28;20236;-69
2022/10/15 08:04:41;;;;;;;80.22;39.75;;;;;;;;;;5033818;28;20189;-68
2022/10/15 08:07:07;;;;;;;90.43;43.90;;;;;;;;;;5027927;28;20204;-69
2022/10/15 08:09:32;;;;;;;103.15;46.33;;;;;;;;;;5030083;28;20185;-69
2022/10/15 08:11:57;;;;;;;93.30;45.75;;;;;;;;;;5032858;28;20186;-68
2022/10/15 08:14:23;;;;;;;85.95;44.90;;;;;;;;;;5030413;28;20178;-69
2022/10/15 08:16:48;;;;;;;82.82;41.88;;;;;;;;;;5029560;28;20666;-69
2022/10/15 08:19:16;;;;;;;90.05;44.42;;;;;;;;;;5028631;28;20206;-69
2022/10/15 08:21:42;;;;;;;100.93;46.10;;;;;;;;;;5047202;28;20185;-69
2022/10/15 08:24:07;;;;;;;91.43;46.67;;;;;;;;;;5032940;28;20238;-69
2022/10/15 08:26:34;;;;;;;103.13;47.55;;;;;;;;;;5043325;28;20288;-69
2022/10/15 08:28:59;;;;;;;101.35;47.80;;;;;;;;;;5031483;28;20270;-69
2022/10/15 08:31:25;;;;;;;106.68;47.80;;;;;;;;;;5027362;28;20241;-69
2022/10/15 08:33:50;;;;;;;94.65;45.50;;;;;;;;;;5040687;28;20197;-69
2022/10/15 08:36:15;;;;;;;87.30;43.95;;;;;;;;;;5044221;28;20214;-69
2022/10/15 08:38:41;;;;;;;72.60;40.15;;;;;;;;;;5041456;28;20251;-69
2022/10/15 08:41:36;;;;;;;77.80;39.45;;;;;;;;;;5032415;28;20192;-68
2022/10/15 08:44:02;;;;;;;71.28;37.45;;;;;;;;;;5047665;28;20657;-69
2022/10/15 08:46:36;;;;;;;68.30;36.65;;;;;;;;;;5033935;28;20178;-69
2022/10/15 08:49:03;;;;;;;73.47;37.47;;;;;;;;;;5047221;28;20189;-69
2022/10/15 08:51:38;;;;;;;66.05;35.38;;;;;;;;;;5028635;28;20336;-69
2022/10/15 08:54:06;;;;;;;54.63;31.67;;;;;;;;;;5040728;28;20280;-68
2022/10/15 08:56:38;;;;;;;59.13;32.67;;;;;;;;;;5031922;28;20732;-68
2022/10/15 08:59:40;;;;;;;54.08;31.65;;;;;;;;;;5030355;28;20192;-68
2022/10/15 09:02:19;;;;;;;56.78;31.38;;;;;;;;;;5041738;28;20654;-68
2022/10/15 09:04:56;;;;;;;52.28;30.05;;;;;;;;;;5027685;28;20209;-69
2022/10/15 09:07:39;;;;;;;49.88;29.75;;;;;;;;;;5034892;28;20216;-68
2022/10/15 09:10:22;;;;;;;48.72;29.35;;;;;;;;;;5038224;28;20209;-68
2022/10/15 09:13:00;;;;;;;50.15;29.73;;;;;;;;;;5031920;28;20188;-68
2022/10/15 09:15:29;;;;;;;54.10;29.20;;;;;;;;;;5028883;28;20182;-68
2022/10/15 09:17:55;;;;;;;53.85;29.85;;;;;;;;;;5031798;28;20236;-68
2022/10/15 09:20:25;;;;;;;52.08;29.77;;;;;;;;;;5038586;28;20181;-68
2022/10/15 09:22:51;;;;;;;48.38;28.40;;;;;;;;;;5033038;28;20232;-68
2022/10/15 09:25:21;;;;;;;47.40;28.73;;;;;;;;;;5034341;28;20609;-69
2022/10/15 09:27:48;;;;;;;51.53;29.67;;;;;;;;;;5037392;28;20864;-68
2022/10/15 09:30:44;;;;;;;49.03;29.30;;;;;;;;;;5036184;28;20189;-68
2022/10/15 09:33:23;;;;;;;48.60;28.55;;;;;;;;;;5029906;28;20735;-68
2022/10/15 09:36:05;;;;;;;45.67;27.50;;;;;;;;;;5030075;28;20181;-68
2022/10/15 09:38:43;;;;;;;45.90;28.73;;;;;;;;;;5028961;28;20182;-68
2022/10/15 09:41:19;;;;;;;44.15;28.48;;;;;;;;;;5029709;28;20185;-68
2022/10/15 09:43:48;;;;;;;49.38;29.25;;;;;;;;;;5030364;28;20182;-68
2022/10/15 09:46:13;;;;;;;45.15;27.25;;;;;;;;;;5031481;28;20218;-68
2022/10/15 09:48:44;;;;;;;46.00;26.85;;;;;;;;;;5028642;28;20202;-68
2022/10/15 09:51:31;;;;;;;45.63;27.85;;;;;;;;;;5031148;28;20221;-68
2022/10/15 09:54:16;;;;;;;42.45;27.13;;;;;;;;;;5031537;28;20711;-68
2022/10/15 09:56:53;;;;;;;44.28;27.17;;;;;;;;;;5035125;28;20182;-68
2022/10/15 09:59:20;;;;;;;41.25;25.17;;;;;;;;;;5035721;28;20657;-68
2022/10/15 10:02:15;;;;;;;42.67;25.88;;;;;;;;;;5032025;28;20878;-68
2022/10/15 10:04:40;;;;;;;42.40;26.00;;;;;;;;;;5030154;28;20221;-68
2022/10/15 10:07:07;;;;;;;36.35;24.05;;;;;;;;;;5030063;28;20214;-68
2022/10/15 10:09:45;;;;;;;33.60;21.40;;;;;;;;;;5032068;28;20214;-68
2022/10/15 10:12:21;;;;;;;35.33;23.05;;;;;;;;;;5034582;28;20548;-68
2022/10/15 10:15:25;;;;;;;34.67;22.15;;;;;;;;;;5033154;28;20193;-68
2022/10/15 10:17:55;;;;;;;37.85;23.30;;;;;;;;;;5033296;28;20527;-68
2022/10/15 10:20:29;;;;;;;32.95;21.40;;;;;;;;;;5030256;28;20255;-68
2022/10/15 10:22:57;;;;;;;33.33;22.17;;;;;;;;;;5031517;28;20217;-68
2022/10/15 10:25:25;;;;;;;32.35;22.58;;;;;;;;;;5038691;28;20252;-67
2022/10/15 10:27:55;;;;;;;34.70;21.73;;;;;;;;;;5031293;28;20661;-68
2022/10/15 10:30:21;;;;;;;33.10;21.58;;;;;;;;;;5033541;28;20185;-68
2022/10/15 10:32:47;;;;;;;32.13;21.48;;;;;;;;;;5031894;28;20242;-68
2022/10/15 10:35:23;;;;;;;30.50;20.83;;;;;;;;;;5033989;28;20190;-68
2022/10/15 10:37:50;;;;;;;30.52;21.75;;;;;;;;;;5029528;28;20239;-67
2022/10/15 10:40:27;;;;;;;28.25;20.17;;;;;;;;;;5029991;28;20201;-67
2022/10/15 10:43:17;;;;;;;27.50;19.92;;;;;;;;;;5035516;28;20193;-68
2022/10/15 10:45:54;;;;;;;28.17;20.30;;;;;;;;;;5031188;28;20543;-68
2022/10/15 10:48:39;;;;;;;28.00;18.77;;;;;;;;;;5031047;28;20206;-68
2022/10/15 10:51:10;;;;;;;25.00;18.80;;;;;;;;;;5032558;28;20185;-68
2022/10/15 10:53:46;;;;;;;27.70;19.35;;;;;;;;;;5031955;28;20654;-68
2022/10/15 10:56:13;;;;;;;24.77;17.42;;;;;;;;;;5030781;28;20181;-68
2022/10/15 10:58:39;;;;;;;25.80;17.90;;;;;;;;;;5031627;28;20725;-68
2022/10/15 11:01:04;;;;;;;23.83;16.92;;;;;;;;;;5034864;28;20272;-68
2022/10/15 11:03:38;;;;;;;24.50;17.00;;;;;;;;;;5037419;28;20236;-68
2022/10/15 11:06:28;;;;;;;24.05;16.95;;;;;;;;;;5030879;28;20282;-68
2022/10/15 11:09:18;;;;;;;28.63;18.00;;;;;;;;;;5038686;28;20196;-68
2022/10/15 11:12:07;;;;;;;25.69;16.34;;;;;;;;;;4528741;28;10002985;-68
2022/10/15 11:14:53;;;;;;;27.52;18.77;;;;;;;;;;5034178;28;20177;-69
2022/10/15 11:17:34;;;;;;;29.90;19.92;;;;;;;;;;5028294;28;20600;-70
2022/10/15 11:20:14;;;;;;;30.80;19.35;;;;;;;;;;5037365;28;20212;-71
2022/10/15 11:22:47;;;;;;;31.42;19.33;;;;;;;;;;5039914;28;20276;-71
2022/10/15 11:25:24;;;;;;;32.05;19.27;;;;;;;;;;5033976;28;20188;-71
2022/10/15 11:28:12;;;;;;;32.35;20.85;;;;;;;;;;5038098;28;20193;-71
2022/10/15 11:30:44;;;;;;;29.60;20.17;;;;;;;;;;5028451;28;20187;-70
2022/10/15 11:33:20;;;;;;;34.53;20.23;;;;;;;;;;5035603;28;20548;-71
2022/10/15 11:36:17;;;;;;;27.17;19.40;;;;;;;;;;5027888;28;20235;-71
2022/10/15 11:39:07;;;;;;;29.90;18.50;;;;;;;;;;5029225;28;20463;-70
2022/10/15 11:41:43;;;;;;;24.85;16.70;;;;;;;;;;5030846;28;20190;-69
2022/10/15 11:44:35;;;;;;;21.85;16.42;;;;;;;;;;5033736;28;20185;-69
2022/10/15 11:47:12;;;;;;;22.88;16.23;;;;;;;;;;5025209;28;20277;-69
2022/10/15 11:49:43;;;;;;;24.17;16.40;;;;;;;;;;5031339;28;20740;-69
2022/10/15 11:52:27;;;;;;;23.05;16.85;;;;;;;;;;5033794;28;20186;-70
2022/10/15 11:55:02;;;;;;;22.67;16.33;;;;;;;;;;5031138;28;20650;-69
2022/10/15 11:57:31;;;;;;;21.00;16.63;;;;;;;;;;5035787;28;20177;-69
2022/10/15 12:00:12;;;;;;;21.50;16.55;;;;;;;;;;5034034;28;20276;-69
2022/10/15 12:02:38;;;;;;;21.15;16.15;;;;;;;;;;5034319;28;20189;-69
2022/10/15 12:05:08;;;;;;;20.77;15.88;;;;;;;;;;5047717;28;20234;-69
2022/10/15 12:07:40;;;;;;;19.77;15.43;;;;;;;;;;5038369;28;20209;-69
2022/10/15 12:10:29;;;;;;;20.60;15.20;;;;;;;;;;5043531;28;20181;-69
2022/10/15 12:13:04;;;;;;;17.08;14.93;;;;;;;;;;5039730;28;20597;-69
2022/10/15 12:15:46;;;;;;;18.58;14.57;;;;;;;;;;5041612;28;20199;-69
2022/10/15 12:18:33;;;;;;;17.33;14.10;;;;;;;;;;5034797;28;20200;-69
2022/10/15 12:20:58;;;;;;;18.63;14.20;;;;;;;;;;5028711;28;20197;-69
2022/10/15 12:23:36;;;;;;;20.17;14.73;;;;;;;;;;5035287;28;20289;-69
2022/10/15 12:26:21;;;;;;;14.98;13.38;;;;;;;;;;5041646;28;20645;-70
2022/10/15 12:28:49;;;;;;;13.93;12.27;;;;;;;;;;5038394;28;20255;-68
2022/10/15 12:31:14;;;;;;;14.18;12.20;;;;;;;;;;5033696;28;20586;-68
2022/10/15 12:33:54;;;;;;;15.40;11.60;;;;;;;;;;5036821;28;20196;-68
2022/10/15 12:36:28;;;;;;;12.75;11.55;;;;;;;;;;5027188;28;20650;-68
2022/10/15 12:39:01;;;;;;;15.50;11.77;;;;;;;;;;5035025;28;20432;-68
2022/10/15 12:41:53;;;;;;;14.82;11.20;;;;;;;;;;5041726;28;20555;-68
2022/10/15 12:44:31;;;;;;;13.77;12.05;;;;;;;;;;5033611;28;20669;-68
2022/10/15 12:46:58;;;;;;;14.20;11.95;;;;;;;;;;5029026;28;20225;-68
2022/10/15 12:49:26;;;;;;;13.20;11.80;;;;;;;;;;5026496;28;20725;-68
2022/10/15 12:52:47;;;;;;;13.52;12.13;;;;;;;;;;5032959;28;20186;-68
2022/10/15 12:55:28;;;;;;;12.38;10.95;;;;;;;;;;4999639;28;20201;-68
2022/10/15 12:57:54;;;;;;;13.20;11.73;;;;;;;;;;5039088;28;20664;-67
2022/10/15 13:00:27;;;;;;;14.02;12.63;;;;;;;;;;5045200;28;20525;-67
2022/10/15 13:02:54;;;;;;;13.48;12.07;;;;;;;;;;5038594;28;20684;-68
2022/10/15 13:05:34;;;;;;;12.07;10.88;;;;;;;;;;5031980;28;20178;-67
2022/10/15 13:08:02;;;;;;;11.55;10.27;;;;;;;;;;5042063;28;20213;-67
2022/10/15 13:10:32;;;;;;;11.88;10.52;;;;;;;;;;5030042;28;20224;-67
2022/10/15 13:13:04;;;;;;;11.15;10.05;;;;;;;;;;5030013;28;20699;-68
2022/10/15 13:15:33;;;;;;;10.43;9.52;;;;;;;;;;5036460;28;20197;-68
2022/10/15 13:18:04;;;;;;;9.93;8.93;;;;;;;;;;5028349;28;20607;-67
2022/10/15 13:20:32;;;;;;;10.15;9.15;;;;;;;;;;5034907;28;20186;-68
2022/10/15 13:23:31;;;;;;;9.50;8.38;;;;;;;;;;5031495;28;20226;-68
2022/10/15 13:26:24;;;;;;;9.52;8.63;;;;;;;;;;5025614;28;20208;-69
2022/10/15 13:28:51;;;;;;;8.90;8.10;;;;;;;;;;5030229;28;20971;-68
2022/10/15 13:31:26;;;;;;;6.82;6.30;;;;;;;;;;5043205;28;20241;-68
2022/10/15 13:33:54;;;;;;;8.63;7.25;;;;;;;;;;5028671;28;20232;-68
2022/10/15 13:36:25;;;;;;;7.93;7.13;;;;;;;;;;5030945;28;20178;-68
2022/10/15 13:38:57;;;;;;;7.60;6.90;;;;;;;;;;5033670;28;20676;-68
2022/10/15 13:41:42;;;;;;;7.20;6.50;;;;;;;;;;5030939;28;20181;-68
2022/10/15 13:44:37;;;;;;;7.05;6.35;;;;;;;;;;5039113;28;20227;-68
2022/10/15 13:47:23;;;;;;;6.95;6.25;;;;;;;;;;5034775;28;20587;-68
2022/10/15 13:49:48;;;;;;;6.82;6.22;;;;;;;;;;5033253;28;20235;-68
2022/10/15 13:52:14;;;;;;;7.25;5.90;;;;;;;;;;5031702;28;20629;-68
2022/10/15 13:54:42;;;;;;;6.63;5.63;;;;;;;;;;5041267;28;20220;-68
2022/10/15 13:57:14;;;;;;;6.75;6.15;;;;;;;;;;5027992;28;20352;-68
2022/10/15 13:59:44;;;;;;;7.00;5.93;;;;;;;;;;5034395;28;20758;-67
2022/10/15 14:02:10;;;;;;;5.53;4.82;;;;;;;;;;5043852;28;20174;-68
2022/10/15 14:04:36;;;;;;;5.47;4.97;;;;;;;;;;5038592;28;20697;-68
2022/10/15 14:07:17;;;;;;;7.28;5.32;;;;;;;;;;5030665;28;20296;-68
2022/10/15 14:09:45;;;;;;;6.07;5.20;;;;;;;;;;5034255;28;20218;-67
2022/10/15 14:12:10;;;;;;;5.93;5.28;;;;;;;;;;5043770;28;20672;-67
2022/10/15 14:14:42;;;;;;;5.68;5.10;;;;;;;;;;5037159;28;20185;-68
2022/10/15 14:17:25;;;;;;;7.13;5.57;;;;;;;;;;5039325;28;20187;-74
2022/10/15 14:19:57;;;;;;;6.65;5.95;;;;;;;;;;5038619;28;20647;-71
2022/10/15 14:22:23;;;;;;;11.15;6.57;;;;;;;;;;5032669;28;20177;-71
2022/10/15 14:24:52;;;;;;;7.82;7.13;;;;;;;;;;5030046;28;20696;-71
2022/10/15 14:27:26;;;;;;;7.55;6.85;;;;;;;;;;5031977;28;20206;-71
2022/10/15 14:29:57;;;;;;;6.47;5.90;;;;;;;;;;5038973;28;20185;-70
2022/10/15 14:32:28;;;;;;;9.88;7.10;;;;;;;;;;5030523;28;20624;-70
2022/10/15 14:35:01;;;;;;;6.88;6.20;;;;;;;;;;4688853;28;10000767;-69
2022/10/15 14:37:41;;;;;;;8.25;7.15;;;;;;;;;;5030749;28;20193;-70
2022/10/15 14:40:07;;;;;;;9.82;6.63;;;;;;;;;;5034084;28;20189;-70